sensor_id;sensor_type;location;lat;lon;timestamp;pressure;altitude;pressure_sealevel;temperature;humidity
80726;BME280;70113;59.928;10.878;2023-08-08T00:02:08;96497.41;;;15.87;100.00
80726;BME280;70113;59.928;10.878;2023-08-08T00:04:33;96510.72;;;15.87;100.00
80726;BME280;70113;59.928;10.878;2023-08-08T00:06:59;96500.66;;;15.81;100.00
80726;BME280;70113;59.928;10.878;2023-08-08T00:09:25;96504.56;;;15.87;100.00
80726;BME280;70113;59.928;10.878;2023-08-08T00:11:50;96505.00;;;15.82;100.00
80726;BME280;70113;59.928;10.878;2023-08-08T00:14:16;96511.56;;;15.88;100.00
80726;BME280;70113;59.928;10.878;2023-08-08T00:16:42;96503.31;;;15.81;100.00
80726;BME280;70113;59.928;10.878;2023-08-08T00:19:08;96505.69;;;15.84;100.00
80726;BME280;70113;59.928;10.878;2023-08-08T00:21:33;96505.59;;;15.76;100.00
80726;BME280;70113;59.928;10.878;2023-08-08T00:23:59;96511.84;;;15.85;100.00
80726;BME280;70113;59.928;10.878;2023-08-08T00:26:25;96506.00;;;15.81;100.00
80726;BME280;70113;59.928;10.878;2023-08-08T00:28:50;96507.41;;;15.76;100.00
80726;BME280;70113;59.928;10.878;2023-08-08T00:31:16;96499.31;;;15.67;100.00
80726;BME280;70113;59.928;10.878;2023-08-08T00:33:43;96503.69;;;15.68;100.00
80726;BME280;70113;59.928;10.878;2023-08-08T00:36:08;96497.34;;;15.69;100.00
80726;BME280;70113;59.928;10.878;2023-08-08T00:38:34;96489.78;;;15.65;100.00
80726;BME280;70113;59.928;10.878;2023-08-08T00:41:00;96495.25;;;15.63;100.00
80726;BME280;70113;59.928;10.878;2023-08-08T00:43:26;96502.69;;;15.60;100.00
80726;BME280;70113;59.928;10.878;2023-08-08T00:45:51;96506.66;;;15.56;100.00
80726;BME280;70113;59.928;10.878;2023-08-08T00:48:18;96486.78;;;15.50;100.00
80726;BME280;70113;59.928;10.878;2023-08-08T00:50:45;96489.72;;;15.47;100.00
80726;BME280;70113;59.928;10.878;2023-08-08T00:53:11;96479.91;;;15.47;100.00
80726;BME280;70113;59.928;10.878;2023-08-08T00:55:37;96487.63;;;15.50;100.00
80726;BME280;70113;59.928;10.878;2023-08-08T00:58:04;96491.81;;;15.53;100.00
80726;BME280;70113;59.928;10.878;2023-08-08T01:00:29;96485.78;;;15.51;100.00
80726;BME280;70113;59.928;10.878;2023-08-08T01:02:55;96495.19;;;15.45;100.00
80726;BME280;70113;59.928;10.878;2023-08-08T01:05:21;96476.44;;;15.37;100.00
80726;BME280;70113;59.928;10.878;2023-08-08T01:07:54;96490.41;;;15.49;100.00
80726;BME280;70113;59.928;10.878;2023-08-08T01:10:26;96488.16;;;15.54;100.00
80726;BME280;70113;59.928;10.878;2023-08-08T01:12:58;96497.97;;;15.54;100.00
80726;BME280;70113;59.928;10.878;2023-08-08T01:15:24;96498.25;;;15.50;100.00
80726;BME280;70113;59.928;10.878;2023-08-08T01:17:51;96493.91;;;15.49;100.00
80726;BME280;70113;59.928;10.878;2023-08-08T01:20:18;96489.56;;;15.48;100.00
80726;BME280;70113;59.928;10.878;2023-08-08T01:25:21;96467.44;;;15.48;100.00
80726;BME280;70113;59.928;10.878;2023-08-08T01:27:47;96468.22;;;15.58;100.00
80726;BME280;70113;59.928;10.878;2023-08-08T01:30:12;96473.84;;;15.55;100.00
80726;BME280;70113;59.928;10.878;2023-08-08T01:32:38;96483.53;;;15.56;100.00
80726;BME280;70113;59.928;10.878;2023-08-08T01:35:04;96482.81;;;15.54;100.00
80726;BME280;70113;59.928;10.878;2023-08-08T01:37:36;96469.09;;;15.49;100.00
80726;BME280;70113;59.928;10.878;2023-08-08T01:40:05;96475.56;;;15.46;100.00
80726;BME280;70113;59.928;10.878;2023-08-08T01:42:32;96465.31;;;15.52;100.00
80726;BME280;70113;59.928;10.878;2023-08-08T01:44:58;96465.72;;;15.57;100.00
80726;BME280;70113;59.928;10.878;2023-08-08T01:47:25;96465.19;;;15.53;100.00
80726;BME280;70113;59.928;10.878;2023-08-08T01:49:50;96462.13;;;15.48;100.00
80726;BME280;70113;59.928;10.878;2023-08-08T01:52:16;96447.56;;;15.42;100.00
80726;BME280;70113;59.928;10.878;2023-08-08T01:54:42;96449.53;;;15.40;100.00
80726;BME280;70113;59.928;10.878;2023-08-08T01:57:08;96425.09;;;15.27;100.00
80726;BME280;70113;59.928;10.878;2023-08-08T01:59:34;96427.75;;;15.27;100.00
80726;BME280;70113;59.928;10.878;2023-08-08T02:02:00;96431.97;;;15.20;100.00
80726;BME280;70113;59.928;10.878;2023-08-08T02:04:25;96431.88;;;15.12;100.00
80726;BME280;70113;59.928;10.878;2023-08-08T02:06:51;96438.16;;;15.11;100.00
80726;BME280;70113;59.928;10.878;2023-08-08T02:09:16;96440.16;;;15.09;100.00
80726;BME280;70113;59.928;10.878;2023-08-08T02:11:42;96441.56;;;15.03;100.00
80726;BME280;70113;59.928;10.878;2023-08-08T02:14:08;96432.19;;;14.99;100.00
80726;BME280;70113;59.928;10.878;2023-08-08T02:16:34;96431.63;;;14.95;100.00
80726;BME280;70113;59.928;10.878;2023-08-08T02:19:00;96428.97;;;14.95;100.00
80726;BME280;70113;59.928;10.878;2023-08-08T02:21:26;96438.38;;;14.99;100.00
80726;BME280;70113;59.928;10.878;2023-08-08T02:23:51;96423.00;;;14.93;100.00
80726;BME280;70113;59.928;10.878;2023-08-08T02:26:18;96428.00;;;14.96;100.00
80726;BME280;70113;59.928;10.878;2023-08-08T02:28:44;96420.03;;;14.96;100.00
80726;BME280;70113;59.928;10.878;2023-08-08T02:31:10;96427.03;;;14.97;100.00
80726;BME280;70113;59.928;10.878;2023-08-08T02:33:35;96427.59;;;14.91;100.00
80726;BME280;70113;59.928;10.878;2023-08-08T02:36:01;96427.72;;;14.90;100.00
80726;BME280;70113;59.928;10.878;2023-08-08T02:38:27;96423.28;;;14.90;100.00
80726;BME280;70113;59.928;10.878;2023-08-08T02:40:53;96415.84;;;14.94;100.00
80726;BME280;70113;59.928;10.878;2023-08-08T02:43:18;96424.50;;;14.96;100.00
80726;BME280;70113;59.928;10.878;2023-08-08T02:45:44;96417.50;;;14.95;100.00
80726;BME280;70113;59.928;10.878;2023-08-08T02:48:10;96409.00;;;14.91;100.00
80726;BME280;70113;59.928;10.878;2023-08-08T02:50:36;96411.34;;;14.94;100.00
80726;BME280;70113;59.928;10.878;2023-08-08T02:53:01;96407.03;;;14.93;100.00
80726;BME280;70113;59.928;10.878;2023-08-08T02:55:27;96401.00;;;14.91;100.00
80726;BME280;70113;59.928;10.878;2023-08-08T02:57:52;96400.00;;;14.92;100.00
80726;BME280;70113;59.928;10.878;2023-08-08T03:00:18;96394.16;;;14.89;100.00
80726;BME280;70113;59.928;10.878;2023-08-08T03:02:44;96401.44;;;14.87;100.00
80726;BME280;70113;59.928;10.878;2023-08-08T03:05:10;96392.19;;;14.81;100.00
80726;BME280;70113;59.928;10.878;2023-08-08T03:07:35;96387.88;;;14.80;100.00
80726;BME280;70113;59.928;10.878;2023-08-08T03:10:01;96395.72;;;14.81;100.00
80726;BME280;70113;59.928;10.878;2023-08-08T03:12:27;96386.50;;;14.76;100.00
80726;BME280;70113;59.928;10.878;2023-08-08T03:14:53;96401.63;;;14.75;100.00
80726;BME280;70113;59.928;10.878;2023-08-08T03:17:19;96393.50;;;14.77;100.00
80726;BME280;70113;59.928;10.878;2023-08-08T03:19:44;96384.25;;;14.71;100.00
80726;BME280;70113;59.928;10.878;2023-08-08T03:22:10;96378.13;;;14.71;100.00
80726;BME280;70113;59.928;10.878;2023-08-08T03:24:36;96385.22;;;14.80;100.00
80726;BME280;70113;59.928;10.878;2023-08-08T03:27:01;96394.19;;;14.79;100.00
80726;BME280;70113;59.928;10.878;2023-08-08T03:29:27;96385.09;;;14.81;100.00
80726;BME280;70113;59.928;10.878;2023-08-08T03:31:53;96378.75;;;14.92;100.00
80726;BME280;70113;59.928;10.878;2023-08-08T03:34:19;96378.84;;;15.00;100.00
80726;BME280;70113;59.928;10.878;2023-08-08T03:36:44;96379.78;;;15.09;100.00
80726;BME280;70113;59.928;10.878;2023-08-08T03:39:11;96372.09;;;15.06;100.00
80726;BME280;70113;59.928;10.878;2023-08-08T03:41:36;96348.47;;;15.03;100.00
80726;BME280;70113;59.928;10.878;2023-08-08T03:44:02;96348.47;;;15.03;100.00
80726;BME280;70113;59.928;10.878;2023-08-08T03:46:28;96361.31;;;15.08;100.00
80726;BME280;70113;59.928;10.878;2023-08-08T03:48:54;96358.34;;;15.11;100.00
80726;BME280;70113;59.928;10.878;2023-08-08T03:51:20;96345.22;;;15.09;100.00
80726;BME280;70113;59.928;10.878;2023-08-08T03:53:46;96342.38;;;15.11;100.00
80726;BME280;70113;59.928;10.878;2023-08-08T03:56:11;96358.47;;;15.19;100.00
80726;BME280;70113;59.928;10.878;2023-08-08T03:58:38;96362.84;;;15.10;100.00
80726;BME280;70113;59.928;10.878;2023-08-08T04:01:03;96368.16;;;15.10;100.00
80726;BME280;70113;59.928;10.878;2023-08-08T04:03:29;96371.28;;;15.06;100.00
80726;BME280;70113;59.928;10.878;2023-08-08T04:05:55;96358.09;;;15.04;100.00
80726;BME280;70113;59.928;10.878;2023-08-08T04:08:21;96359.41;;;15.00;100.00
80726;BME280;70113;59.928;10.878;2023-08-08T04:10:46;96337.59;;;14.96;100.00
80726;BME280;70113;59.928;10.878;2023-08-08T04:13:13;96357.28;;;15.03;100.00
80726;BME280;70113;59.928;10.878;2023-08-08T04:15:38;96347.06;;;14.99;100.00
80726;BME280;70113;59.928;10.878;2023-08-08T04:18:04;96345.84;;;14.93;100.00
80726;BME280;70113;59.928;10.878;2023-08-08T04:20:32;96332.84;;;14.90;100.00
80726;BME280;70113;59.928;10.878;2023-08-08T04:22:59;96327.25;;;14.84;100.00
80726;BME280;70113;59.928;10.878;2023-08-08T04:25:25;96323.75;;;14.83;100.00
80726;BME280;70113;59.928;10.878;2023-08-08T04:27:51;96333.28;;;14.86;100.00
80726;BME280;70113;59.928;10.878;2023-08-08T04:30:16;96316.78;;;14.82;100.00
80726;BME280;70113;59.928;10.878;2023-08-08T04:32:42;96315.59;;;14.94;100.00
80726;BME280;70113;59.928;10.878;2023-08-08T04:35:08;96315.66;;;14.85;100.00
80726;BME280;70113;59.928;10.878;2023-08-08T04:37:34;96314.50;;;14.87;100.00
80726;BME280;70113;59.928;10.878;2023-08-08T04:39:59;96312.41;;;14.91;100.00
80726;BME280;70113;59.928;10.878;2023-08-08T04:42:25;96318.56;;;14.91;100.00
80726;BME280;70113;59.928;10.878;2023-08-08T04:44:50;96311.47;;;14.82;100.00
80726;BME280;70113;59.928;10.878;2023-08-08T04:47:16;96308.63;;;14.93;100.00
80726;BME280;70113;59.928;10.878;2023-08-08T04:49:42;96309.19;;;14.87;100.00
80726;BME280;70113;59.928;10.878;2023-08-08T04:52:08;96297.72;;;14.87;100.00
80726;BME280;70113;59.928;10.878;2023-08-08T04:54:33;96290.66;;;14.95;100.00
80726;BME280;70113;59.928;10.878;2023-08-08T04:56:59;96284.69;;;14.93;100.00
80726;BME280;70113;59.928;10.878;2023-08-08T04:59:24;96288.84;;;14.96;100.00
80726;BME280;70113;59.928;10.878;2023-08-08T05:01:50;96287.34;;;14.93;100.00
80726;BME280;70113;59.928;10.878;2023-08-08T05:04:17;96263.84;;;14.89;100.00
80726;BME280;70113;59.928;10.878;2023-08-08T05:06:43;96277.00;;;14.90;100.00
80726;BME280;70113;59.928;10.878;2023-08-08T05:09:09;96275.31;;;14.89;100.00
80726;BME280;70113;59.928;10.878;2023-08-08T05:11:35;96277.97;;;14.89;100.00
80726;BME280;70113;59.928;10.878;2023-08-08T05:14:01;96274.47;;;14.89;100.00
80726;BME280;70113;59.928;10.878;2023-08-08T05:16:28;96275.31;;;14.89;100.00
80726;BME280;70113;59.928;10.878;2023-08-08T05:18:53;96276.00;;;14.91;100.00
80726;BME280;70113;59.928;10.878;2023-08-08T05:21:19;96282.03;;;14.93;100.00
80726;BME280;70113;59.928;10.878;2023-08-08T05:23:45;96273.03;;;14.94;100.00
80726;BME280;70113;59.928;10.878;2023-08-08T05:26:11;96267.03;;;14.92;100.00
80726;BME280;70113;59.928;10.878;2023-08-08T05:28:36;96252.19;;;14.90;100.00
80726;BME280;70113;59.928;10.878;2023-08-08T05:31:02;96258.75;;;14.95;100.00
80726;BME280;70113;59.928;10.878;2023-08-08T05:33:28;96267.44;;;14.97;100.00
80726;BME280;70113;59.928;10.878;2023-08-08T05:35:53;96264.91;;;14.96;100.00
80726;BME280;70113;59.928;10.878;2023-08-08T05:38:19;96256.63;;;14.99;100.00
80726;BME280;70113;59.928;10.878;2023-08-08T05:43:37;96254.44;;;14.94;100.00
80726;BME280;70113;59.928;10.878;2023-08-08T05:46:03;96257.19;;;15.02;100.00
80726;BME280;70113;59.928;10.878;2023-08-08T05:48:29;96259.16;;;15.00;100.00
80726;BME280;70113;59.928;10.878;2023-08-08T05:50:55;96247.81;;;14.98;100.00
80726;BME280;70113;59.928;10.878;2023-08-08T05:53:23;96238.59;;;14.93;100.00
80726;BME280;70113;59.928;10.878;2023-08-08T05:55:49;96250.19;;;15.01;100.00
80726;BME280;70113;59.928;10.878;2023-08-08T05:58:15;96252.25;;;15.08;100.00
80726;BME280;70113;59.928;10.878;2023-08-08T06:00:41;96240.22;;;15.03;100.00
80726;BME280;70113;59.928;10.878;2023-08-08T06:03:08;96231.84;;;14.98;100.00
80726;BME280;70113;59.928;10.878;2023-08-08T06:05:34;96233.69;;;14.98;100.00
80726;BME280;70113;59.928;10.878;2023-08-08T06:08:00;96236.28;;;15.08;100.00
80726;BME280;70113;59.928;10.878;2023-08-08T06:10:26;96241.59;;;15.08;100.00
80726;BME280;70113;59.928;10.878;2023-08-08T06:12:51;96229.16;;;15.08;100.00
80726;BME280;70113;59.928;10.878;2023-08-08T06:15:17;96233.78;;;15.06;100.00
80726;BME280;70113;59.928;10.878;2023-08-08T06:17:43;96218.50;;;15.08;100.00
80726;BME280;70113;59.928;10.878;2023-08-08T06:20:09;96218.88;;;15.13;100.00
80726;BME280;70113;59.928;10.878;2023-08-08T06:22:36;96219.19;;;15.10;100.00
80726;BME280;70113;59.928;10.878;2023-08-08T06:25:02;96220.09;;;15.01;100.00
80726;BME280;70113;59.928;10.878;2023-08-08T06:27:28;96218.94;;;15.03;100.00
80726;BME280;70113;59.928;10.878;2023-08-08T06:29:54;96206.94;;;14.99;100.00
80726;BME280;70113;59.928;10.878;2023-08-08T06:32:21;96200.19;;;15.05;100.00
80726;BME280;70113;59.928;10.878;2023-08-08T06:34:47;96201.16;;;15.04;100.00
80726;BME280;70113;59.928;10.878;2023-08-08T06:37:13;96193.72;;;15.08;100.00
80726;BME280;70113;59.928;10.878;2023-08-08T06:39:38;96193.41;;;15.11;100.00
80726;BME280;70113;59.928;10.878;2023-08-08T06:42:05;96185.06;;;15.06;100.00
80726;BME280;70113;59.928;10.878;2023-08-08T06:44:32;96183.84;;;15.18;100.00
80726;BME280;70113;59.928;10.878;2023-08-08T06:46:58;96170.84;;;15.15;100.00
80726;BME280;70113;59.928;10.878;2023-08-08T06:49:24;96166.81;;;15.11;100.00
80726;BME280;70113;59.928;10.878;2023-08-08T06:51:49;96170.53;;;15.18;100.00
80726;BME280;70113;59.928;10.878;2023-08-08T06:54:15;96148.13;;;15.02;100.00
80726;BME280;70113;59.928;10.878;2023-08-08T06:56:40;96164.16;;;15.11;100.00
80726;BME280;70113;59.928;10.878;2023-08-08T06:59:06;96163.69;;;15.15;100.00
80726;BME280;70113;59.928;10.878;2023-08-08T07:01:32;96162.88;;;15.15;100.00
80726;BME280;70113;59.928;10.878;2023-08-08T07:03:58;96150.69;;;15.12;100.00
80726;BME280;70113;59.928;10.878;2023-08-08T07:06:23;96150.84;;;15.11;100.00
80726;BME280;70113;59.928;10.878;2023-08-08T07:08:50;96151.41;;;15.14;100.00
80726;BME280;70113;59.928;10.878;2023-08-08T07:11:15;96145.78;;;15.17;100.00
80726;BME280;70113;59.928;10.878;2023-08-08T07:13:41;96135.13;;;15.17;100.00
80726;BME280;70113;59.928;10.878;2023-08-08T07:16:07;96129.50;;;15.20;100.00
80726;BME280;70113;59.928;10.878;2023-08-08T07:18:32;96132.28;;;15.19;100.00
80726;BME280;70113;59.928;10.878;2023-08-08T07:20:58;96123.47;;;15.18;100.00
80726;BME280;70113;59.928;10.878;2023-08-08T07:23:24;96128.34;;;15.23;100.00
80726;BME280;70113;59.928;10.878;2023-08-08T07:25:50;96122.34;;;15.21;100.00
80726;BME280;70113;59.928;10.878;2023-08-08T07:28:15;96132.00;;;15.22;100.00
80726;BME280;70113;59.928;10.878;2023-08-08T07:30:41;96116.63;;;15.16;100.00
80726;BME280;70113;59.928;10.878;2023-08-08T07:33:07;96127.19;;;15.25;100.00
80726;BME280;70113;59.928;10.878;2023-08-08T07:35:36;96110.69;;;15.22;100.00
80726;BME280;70113;59.928;10.878;2023-08-08T07:38:02;96119.22;;;15.25;100.00
80726;BME280;70113;59.928;10.878;2023-08-08T07:40:27;96111.09;;;15.27;100.00
80726;BME280;70113;59.928;10.878;2023-08-08T07:42:53;96105.06;;;15.25;100.00
80726;BME280;70113;59.928;10.878;2023-08-08T07:45:19;96098.47;;;15.29;100.00
80726;BME280;70113;59.928;10.878;2023-08-08T07:47:45;96096.44;;;15.23;100.00
80726;BME280;70113;59.928;10.878;2023-08-08T07:50:11;96096.63;;;15.30;100.00
80726;BME280;70113;59.928;10.878;2023-08-08T07:52:37;96091.94;;;15.23;100.00
80726;BME280;70113;59.928;10.878;2023-08-08T07:55:04;96090.78;;;15.26;100.00
80726;BME280;70113;59.928;10.878;2023-08-08T07:57:31;96088.78;;;15.28;100.00
80726;BME280;70113;59.928;10.878;2023-08-08T08:00:00;96091.22;;;15.39;100.00
80726;BME280;70113;59.928;10.878;2023-08-08T08:02:32;96083.53;;;15.36;100.00
80726;BME280;70113;59.928;10.878;2023-08-08T08:04:57;96083.41;;;15.38;100.00
80726;BME280;70113;59.928;10.878;2023-08-08T08:07:23;96081.81;;;15.27;100.00
80726;BME280;70113;59.928;10.878;2023-08-08T08:09:49;96074.66;;;15.27;100.00
80726;BME280;70113;59.928;10.878;2023-08-08T08:12:15;96069.72;;;15.33;100.00
80726;BME280;70113;59.928;10.878;2023-08-08T08:14:40;96068.88;;;15.32;100.00
80726;BME280;70113;59.928;10.878;2023-08-08T08:17:06;96069.41;;;15.36;100.00
80726;BME280;70113;59.928;10.878;2023-08-08T08:19:31;96059.72;;;15.35;100.00
80726;BME280;70113;59.928;10.878;2023-08-08T08:21:57;96054.41;;;15.35;100.00
80726;BME280;70113;59.928;10.878;2023-08-08T08:24:23;96061.25;;;15.37;100.00
80726;BME280;70113;59.928;10.878;2023-08-08T08:26:49;96043.94;;;15.33;100.00
80726;BME280;70113;59.928;10.878;2023-08-08T08:29:14;96049.25;;;15.33;100.00
80726;BME280;70113;59.928;10.878;2023-08-08T08:31:40;96036.97;;;15.40;100.00
80726;BME280;70113;59.928;10.878;2023-08-08T08:34:06;96037.25;;;15.29;100.00
80726;BME280;70113;59.928;10.878;2023-08-08T08:36:31;96009.81;;;15.02;100.00
80726;BME280;70113;59.928;10.878;2023-08-08T08:38:57;96001.97;;;15.01;100.00
80726;BME280;70113;59.928;10.878;2023-08-08T08:41:26;96004.97;;;15.24;100.00
80726;BME280;70113;59.928;10.878;2023-08-08T08:43:53;96003.19;;;15.33;100.00
80726;BME280;70113;59.928;10.878;2023-08-08T08:46:21;95997.34;;;15.29;100.00
80726;BME280;70113;59.928;10.878;2023-08-08T08:48:51;95997.69;;;15.34;100.00
80726;BME280;70113;59.928;10.878;2023-08-08T08:51:18;95991.41;;;15.35;100.00
80726;BME280;70113;59.928;10.878;2023-08-08T08:53:44;95980.44;;;15.38;100.00
80726;BME280;70113;59.928;10.878;2023-08-08T08:56:15;95979.09;;;15.42;100.00
80726;BME280;70113;59.928;10.878;2023-08-08T08:58:42;95964.47;;;15.46;100.00
80726;BME280;70113;59.928;10.878;2023-08-08T09:01:09;95970.44;;;15.40;100.00
80726;BME280;70113;59.928;10.878;2023-08-08T09:03:36;95958.97;;;15.40;100.00
80726;BME280;70113;59.928;10.878;2023-08-08T09:06:04;95957.44;;;15.37;100.00
80726;BME280;70113;59.928;10.878;2023-08-08T09:08:30;95951.66;;;15.42;100.00
80726;BME280;70113;59.928;10.878;2023-08-08T09:10:56;95939.03;;;15.44;100.00
80726;BME280;70113;59.928;10.878;2023-08-08T09:13:22;95938.50;;;15.40;100.00
80726;BME280;70113;59.928;10.878;2023-08-08T09:15:52;95939.56;;;15.47;100.00
80726;BME280;70113;59.928;10.878;2023-08-08T09:18:17;95952.50;;;15.42;100.00
80726;BME280;70113;59.928;10.878;2023-08-08T09:20:47;95945.06;;;15.54;100.00
80726;BME280;70113;59.928;10.878;2023-08-08T09:23:14;95946.41;;;15.58;100.00
80726;BME280;70113;59.928;10.878;2023-08-08T09:25:40;95950.56;;;15.61;100.00
80726;BME280;70113;59.928;10.878;2023-08-08T09:28:05;95945.75;;;15.56;100.00
80726;BME280;70113;59.928;10.878;2023-08-08T09:30:32;95941.06;;;15.58;100.00
80726;BME280;70113;59.928;10.878;2023-08-08T09:32:58;95945.75;;;15.64;100.00
80726;BME280;70113;59.928;10.878;2023-08-08T09:35:25;95942.13;;;15.65;100.00
80726;BME280;70113;59.928;10.878;2023-08-08T09:37:53;95941.44;;;15.63;100.00
80726;BME280;70113;59.928;10.878;2023-08-08T09:40:22;95929.88;;;15.46;100.00
80726;BME280;70113;59.928;10.878;2023-08-08T09:42:51;95929.78;;;15.56;100.00
80726;BME280;70113;59.928;10.878;2023-08-08T09:45:18;95911.88;;;15.40;100.00
80726;BME280;70113;59.928;10.878;2023-08-08T09:47:44;95921.25;;;15.53;100.00
80726;BME280;70113;59.928;10.878;2023-08-08T09:50:10;95922.25;;;15.52;100.00
80726;BME280;70113;59.928;10.878;2023-08-08T09:52:36;95914.03;;;15.37;100.00
80726;BME280;70113;59.928;10.878;2023-08-08T09:55:05;95906.25;;;15.35;100.00
80726;BME280;70113;59.928;10.878;2023-08-08T09:57:32;95899.22;;;15.26;100.00
80726;BME280;70113;59.928;10.878;2023-08-08T09:59:58;95906.88;;;15.29;100.00
80726;BME280;70113;59.928;10.878;2023-08-08T10:02:24;95906.19;;;15.27;100.00
80726;BME280;70113;59.928;10.878;2023-08-08T10:04:50;95897.56;;;15.33;100.00
80726;BME280;70113;59.928;10.878;2023-08-08T10:07:17;95900.91;;;15.43;100.00
80726;BME280;70113;59.928;10.878;2023-08-08T10:09:43;95893.78;;;15.44;100.00
80726;BME280;70113;59.928;10.878;2023-08-08T10:12:11;95888.31;;;15.54;100.00
80726;BME280;70113;59.928;10.878;2023-08-08T10:14:37;95893.00;;;15.60;100.00
80726;BME280;70113;59.928;10.878;2023-08-08T10:17:06;95878.69;;;15.61;100.00
80726;BME280;70113;59.928;10.878;2023-08-08T10:19:32;95879.56;;;15.69;100.00
80726;BME280;70113;59.928;10.878;2023-08-08T10:22:00;95877.09;;;15.68;100.00
80726;BME280;70113;59.928;10.878;2023-08-08T10:24:36;95868.78;;;15.71;100.00
80726;BME280;70113;59.928;10.878;2023-08-08T10:27:03;95870.06;;;15.67;100.00
80726;BME280;70113;59.928;10.878;2023-08-08T10:29:31;95878.41;;;15.72;100.00
80726;BME280;70113;59.928;10.878;2023-08-08T10:32:02;95870.44;;;15.72;100.00
80726;BME280;70113;59.928;10.878;2023-08-08T10:34:42;95868.78;;;15.79;100.00
80726;BME280;70113;59.928;10.878;2023-08-08T10:37:10;95860.13;;;15.77;100.00
80726;BME280;70113;59.928;10.878;2023-08-08T10:39:37;95868.97;;;15.86;100.00
80726;BME280;70113;59.928;10.878;2023-08-08T10:42:04;95850.81;;;15.81;100.00
80726;BME280;70113;59.928;10.878;2023-08-08T10:44:30;95855.81;;;15.84;100.00
80726;BME280;70113;59.928;10.878;2023-08-08T10:46:56;95856.97;;;15.90;100.00
80726;BME280;70113;59.928;10.878;2023-08-08T10:49:22;95856.50;;;15.94;100.00
80726;BME280;70113;59.928;10.878;2023-08-08T10:51:49;95837.47;;;15.73;100.00
80726;BME280;70113;59.928;10.878;2023-08-08T10:54:18;95861.47;;;15.89;100.00
80726;BME280;70113;59.928;10.878;2023-08-08T10:56:49;95870.47;;;15.97;100.00
80726;BME280;70113;59.928;10.878;2023-08-08T10:59:25;95858.16;;;15.95;100.00
80726;BME280;70113;59.928;10.878;2023-08-08T11:01:52;95859.16;;;16.03;100.00
80726;BME280;70113;59.928;10.878;2023-08-08T11:04:20;95860.47;;;15.99;100.00
80726;BME280;70113;59.928;10.878;2023-08-08T11:06:46;95864.81;;;16.00;100.00
80726;BME280;70113;59.928;10.878;2023-08-08T11:09:13;95864.47;;;16.03;100.00
80726;BME280;70113;59.928;10.878;2023-08-08T11:11:41;95865.81;;;16.07;100.00
80726;BME280;70113;59.928;10.878;2023-08-08T11:14:15;95868.16;;;16.10;100.00
80726;BME280;70113;59.928;10.878;2023-08-08T11:16:42;95866.00;;;16.13;100.00
80726;BME280;70113;59.928;10.878;2023-08-08T11:19:09;95863.16;;;16.15;100.00
80726;BME280;70113;59.928;10.878;2023-08-08T11:21:39;95861.84;;;16.19;100.00
80726;BME280;70113;59.928;10.878;2023-08-08T11:24:06;95857.31;;;16.11;100.00
80726;BME280;70113;59.928;10.878;2023-08-08T11:26:33;95847.84;;;16.17;100.00
80726;BME280;70113;59.928;10.878;2023-08-08T11:29:00;95856.50;;;16.19;100.00
80726;BME280;70113;59.928;10.878;2023-08-08T11:31:26;95857.66;;;16.16;100.00
80726;BME280;70113;59.928;10.878;2023-08-08T11:33:53;95845.69;;;16.12;100.00
80726;BME280;70113;59.928;10.878;2023-08-08T11:36:20;95862.66;;;16.20;100.00
80726;BME280;70113;59.928;10.878;2023-08-08T11:38:49;95853.00;;;16.18;100.00
80726;BME280;70113;59.928;10.878;2023-08-08T11:41:22;95858.47;;;16.09;100.00
80726;BME280;70113;59.928;10.878;2023-08-08T11:43:48;95857.16;;;16.13;100.00
80726;BME280;70113;59.928;10.878;2023-08-08T11:46:14;95853.00;;;16.10;100.00
80726;BME280;70113;59.928;10.878;2023-08-08T11:48:41;95861.97;;;16.17;100.00
80726;BME280;70113;59.928;10.878;2023-08-08T11:51:08;95841.19;;;16.21;100.00
80726;BME280;70113;59.928;10.878;2023-08-08T11:53:35;95853.50;;;16.06;100.00
80726;BME280;70113;59.928;10.878;2023-08-08T11:56:02;95821.34;;;15.91;100.00
80726;BME280;70113;59.928;10.878;2023-08-08T11:58:32;95844.03;;;16.03;100.00
80726;BME280;70113;59.928;10.878;2023-08-08T12:00:58;95836.84;;;16.12;100.00
80726;BME280;70113;59.928;10.878;2023-08-08T12:03:27;95823.50;;;16.20;100.00
80726;BME280;70113;59.928;10.878;2023-08-08T12:05:52;95843.50;;;16.00;100.00
80726;BME280;70113;59.928;10.878;2023-08-08T12:08:19;95837.34;;;15.99;100.00
80726;BME280;70113;59.928;10.878;2023-08-08T12:10:49;95836.84;;;16.12;100.00
80726;BME280;70113;59.928;10.878;2023-08-08T12:13:19;95837.50;;;16.06;100.00
80726;BME280;70113;59.928;10.878;2023-08-08T12:15:45;95819.88;;;16.05;100.00
80726;BME280;70113;59.928;10.878;2023-08-08T12:18:11;95826.84;;;16.06;100.00
80726;BME280;70113;59.928;10.878;2023-08-08T12:20:36;95816.84;;;16.00;100.00
80726;BME280;70113;59.928;10.878;2023-08-08T12:23:02;95819.53;;;15.83;100.00
80726;BME280;70113;59.928;10.878;2023-08-08T12:25:28;95814.88;;;16.02;100.00
80726;BME280;70113;59.928;10.878;2023-08-08T12:27:54;95817.38;;;15.95;100.00
80726;BME280;70113;59.928;10.878;2023-08-08T12:30:20;95810.53;;;15.84;100.00
80726;BME280;70113;59.928;10.878;2023-08-08T12:32:46;95822.50;;;15.97;100.00
80726;BME280;70113;59.928;10.878;2023-08-08T12:35:11;95816.69;;;15.85;100.00
80726;BME280;70113;59.928;10.878;2023-08-08T12:37:37;95793.41;;;15.70;100.00
80726;BME280;70113;59.928;10.878;2023-08-08T12:40:03;95817.84;;;15.82;100.00
80726;BME280;70113;59.928;10.878;2023-08-08T12:42:31;95825.50;;;15.93;100.00